sim
Sign-in with your pilot id or email,
or register
Callsign
Passwort

Schedule Details

Flight Number: OEO6229
Departure: Delhi Indira Gandhi International Airport (VIDP) at 19:30
Arrival: Zurich Airport (LSZH) at 04:35

Weather Information
Getting current METAR information for VIDP 271630Z 00000KT 2500 FU NSC 22/15 Q1013 NOSIG
Getting current METAR information for LSZH 271650Z 18005KT 9999 FEW035 08/04 Q1013 NOSIG

Schedule Frequency

Route Map